sensor_id;sensor_type;location;lat;lon;timestamp;P1;durP1;ratioP1;P2;durP2;ratioP2
16401;SDS011;8310;44.626;11.176;2022-12-20T00:00:55;55.25;;;26.40;;
16401;SDS011;8310;44.626;11.176;2022-12-20T00:03:24;56.92;;;27.30;;
16401;SDS011;8310;44.626;11.176;2022-12-20T00:05:51;57.10;;;26.70;;
16401;SDS011;8310;44.626;11.176;2022-12-20T00:08:19;54.95;;;26.92;;
16401;SDS011;8310;44.626;11.176;2022-12-20T00:10:48;64.80;;;28.77;;
16401;SDS011;8310;44.626;11.176;2022-12-20T00:13:16;57.35;;;26.48;;
16401;SDS011;8310;44.626;11.176;2022-12-20T00:15:43;58.40;;;27.95;;
16401;SDS011;8310;44.626;11.176;2022-12-20T00:18:11;60.28;;;26.52;;
16401;SDS011;8310;44.626;11.176;2022-12-20T00:20:38;55.00;;;26.98;;
16401;SDS011;8310;44.626;11.176;2022-12-20T00:23:07;60.13;;;28.23;;
16401;SDS011;8310;44.626;11.176;2022-12-20T00:25:35;64.28;;;27.33;;
16401;SDS011;8310;44.626;11.176;2022-12-20T00:28:04;60.65;;;29.20;;
16401;SDS011;8310;44.626;11.176;2022-12-20T00:30:32;69.68;;;29.45;;
16401;SDS011;8310;44.626;11.176;2022-12-20T00:33:01;61.85;;;27.98;;
16401;SDS011;8310;44.626;11.176;2022-12-20T00:35:28;60.17;;;27.27;;
16401;SDS011;8310;44.626;11.176;2022-12-20T00:37:56;57.58;;;28.00;;
16401;SDS011;8310;44.626;11.176;2022-12-20T00:40:23;57.80;;;26.60;;
16401;SDS011;8310;44.626;11.176;2022-12-20T00:42:50;60.40;;;28.20;;
16401;SDS011;8310;44.626;11.176;2022-12-20T00:45:20;56.97;;;27.75;;
16401;SDS011;8310;44.626;11.176;2022-12-20T00:47:49;55.55;;;27.42;;
16401;SDS011;8310;44.626;11.176;2022-12-20T00:50:16;55.50;;;26.95;;
16401;SDS011;8310;44.626;11.176;2022-12-20T00:52:45;58.05;;;27.40;;
16401;SDS011;8310;44.626;11.176;2022-12-20T00:55:12;56.65;;;27.40;;
16401;SDS011;8310;44.626;11.176;2022-12-20T00:57:43;57.42;;;27.67;;
16401;SDS011;8310;44.626;11.176;2022-12-20T01:00:11;60.95;;;28.23;;
16401;SDS011;8310;44.626;11.176;2022-12-20T01:02:41;58.53;;;28.80;;
16401;SDS011;8310;44.626;11.176;2022-12-20T01:05:08;55.17;;;27.10;;
16401;SDS011;8310;44.626;11.176;2022-12-20T01:07:36;59.40;;;29.33;;
16401;SDS011;8310;44.626;11.176;2022-12-20T01:10:04;57.95;;;27.95;;
16401;SDS011;8310;44.626;11.176;2022-12-20T01:12:33;67.57;;;28.55;;
16401;SDS011;8310;44.626;11.176;2022-12-20T01:15:01;59.92;;;28.75;;
16401;SDS011;8310;44.626;11.176;2022-12-20T01:17:28;60.95;;;28.90;;
16401;SDS011;8310;44.626;11.176;2022-12-20T01:19:57;59.10;;;29.90;;
16401;SDS011;8310;44.626;11.176;2022-12-20T01:22:25;64.95;;;31.08;;
16401;SDS011;8310;44.626;11.176;2022-12-20T01:24:53;56.65;;;28.70;;
16401;SDS011;8310;44.626;11.176;2022-12-20T01:27:23;68.70;;;30.00;;
16401;SDS011;8310;44.626;11.176;2022-12-20T01:29:51;68.68;;;30.23;;
16401;SDS011;8310;44.626;11.176;2022-12-20T01:32:18;62.50;;;30.38;;
16401;SDS011;8310;44.626;11.176;2022-12-20T01:34:46;63.92;;;30.02;;
16401;SDS011;8310;44.626;11.176;2022-12-20T01:37:14;59.42;;;28.48;;
16401;SDS011;8310;44.626;11.176;2022-12-20T01:39:41;60.13;;;29.85;;
16401;SDS011;8310;44.626;11.176;2022-12-20T01:42:10;58.13;;;30.25;;
16401;SDS011;8310;44.626;11.176;2022-12-20T01:44:52;56.00;;;28.50;;
16401;SDS011;8310;44.626;11.176;2022-12-20T01:47:22;60.40;;;29.42;;
16401;SDS011;8310;44.626;11.176;2022-12-20T01:49:52;63.88;;;29.92;;
16401;SDS011;8310;44.626;11.176;2022-12-20T01:52:26;64.25;;;29.25;;
16401;SDS011;8310;44.626;11.176;2022-12-20T01:55:00;61.28;;;29.38;;
16401;SDS011;8310;44.626;11.176;2022-12-20T01:57:32;58.45;;;28.65;;
16401;SDS011;8310;44.626;11.176;2022-12-20T02:00:04;59.78;;;30.33;;
16401;SDS011;8310;44.626;11.176;2022-12-20T02:02:34;64.13;;;30.73;;
16401;SDS011;8310;44.626;11.176;2022-12-20T02:05:03;53.88;;;29.05;;
16401;SDS011;8310;44.626;11.176;2022-12-20T02:07:33;57.35;;;29.27;;
16401;SDS011;8310;44.626;11.176;2022-12-20T02:10:03;59.00;;;26.67;;
16401;SDS011;8310;44.626;11.176;2022-12-20T02:12:36;58.95;;;28.45;;
16401;SDS011;8310;44.626;11.176;2022-12-20T02:15:14;50.50;;;26.55;;
16401;SDS011;8310;44.626;11.176;2022-12-20T02:17:59;60.17;;;28.65;;
16401;SDS011;8310;44.626;11.176;2022-12-20T02:20:39;61.97;;;29.50;;
16401;SDS011;8310;44.626;11.176;2022-12-20T02:23:37;62.13;;;28.88;;
16401;SDS011;8310;44.626;11.176;2022-12-20T02:26:31;59.72;;;28.42;;
16401;SDS011;8310;44.626;11.176;2022-12-20T02:29:20;54.25;;;27.20;;
16401;SDS011;8310;44.626;11.176;2022-12-20T02:31:57;54.83;;;26.02;;
16401;SDS011;8310;44.626;11.176;2022-12-20T02:34:28;54.67;;;26.30;;
16401;SDS011;8310;44.626;11.176;2022-12-20T02:37:01;55.92;;;27.23;;
16401;SDS011;8310;44.626;11.176;2022-12-20T02:39:28;59.22;;;29.50;;
16401;SDS011;8310;44.626;11.176;2022-12-20T02:41:58;52.55;;;26.13;;
16401;SDS011;8310;44.626;11.176;2022-12-20T02:44:30;51.17;;;27.80;;
16401;SDS011;8310;44.626;11.176;2022-12-20T02:47:18;56.78;;;26.98;;
16401;SDS011;8310;44.626;11.176;2022-12-20T02:49:49;59.35;;;27.55;;
16401;SDS011;8310;44.626;11.176;2022-12-20T02:52:16;56.83;;;27.88;;
16401;SDS011;8310;44.626;11.176;2022-12-20T02:54:47;61.40;;;27.70;;
16401;SDS011;8310;44.626;11.176;2022-12-20T02:57:17;55.40;;;29.08;;
16401;SDS011;8310;44.626;11.176;2022-12-20T02:59:49;61.75;;;29.67;;
16401;SDS011;8310;44.626;11.176;2022-12-20T03:02:28;59.55;;;28.42;;
16401;SDS011;8310;44.626;11.176;2022-12-20T03:05:16;66.18;;;29.98;;
16401;SDS011;8310;44.626;11.176;2022-12-20T03:07:45;58.40;;;28.92;;
16401;SDS011;8310;44.626;11.176;2022-12-20T03:10:13;57.65;;;29.83;;
16401;SDS011;8310;44.626;11.176;2022-12-20T03:12:41;60.10;;;29.38;;
16401;SDS011;8310;44.626;11.176;2022-12-20T03:15:09;61.40;;;29.55;;
16401;SDS011;8310;44.626;11.176;2022-12-20T03:17:38;59.20;;;29.85;;
16401;SDS011;8310;44.626;11.176;2022-12-20T03:20:07;61.28;;;29.83;;
16401;SDS011;8310;44.626;11.176;2022-12-20T03:22:36;55.22;;;27.65;;
16401;SDS011;8310;44.626;11.176;2022-12-20T03:25:04;59.35;;;28.88;;
16401;SDS011;8310;44.626;11.176;2022-12-20T03:27:32;64.00;;;28.35;;
16401;SDS011;8310;44.626;11.176;2022-12-20T03:30:00;60.22;;;30.02;;
16401;SDS011;8310;44.626;11.176;2022-12-20T03:32:29;62.00;;;28.80;;
16401;SDS011;8310;44.626;11.176;2022-12-20T03:34:58;58.75;;;29.88;;
16401;SDS011;8310;44.626;11.176;2022-12-20T03:37:26;58.67;;;30.05;;
16401;SDS011;8310;44.626;11.176;2022-12-20T03:39:55;57.72;;;27.92;;
16401;SDS011;8310;44.626;11.176;2022-12-20T03:42:23;57.10;;;28.40;;
16401;SDS011;8310;44.626;11.176;2022-12-20T03:44:50;59.10;;;28.35;;
16401;SDS011;8310;44.626;11.176;2022-12-20T03:47:19;57.60;;;29.85;;
16401;SDS011;8310;44.626;11.176;2022-12-20T03:49:47;55.90;;;28.95;;
16401;SDS011;8310;44.626;11.176;2022-12-20T03:52:17;62.60;;;29.67;;
16401;SDS011;8310;44.626;11.176;2022-12-20T03:54:45;58.35;;;30.90;;
16401;SDS011;8310;44.626;11.176;2022-12-20T03:57:13;61.42;;;29.42;;
16401;SDS011;8310;44.626;11.176;2022-12-20T03:59:40;55.75;;;29.98;;
16401;SDS011;8310;44.626;11.176;2022-12-20T04:02:09;64.88;;;30.58;;
16401;SDS011;8310;44.626;11.176;2022-12-20T04:04:37;67.72;;;30.85;;
16401;SDS011;8310;44.626;11.176;2022-12-20T04:07:05;55.65;;;28.55;;
16401;SDS011;8310;44.626;11.176;2022-12-20T04:09:35;55.33;;;27.25;;
16401;SDS011;8310;44.626;11.176;2022-12-20T04:12:03;56.50;;;27.63;;
16401;SDS011;8310;44.626;11.176;2022-12-20T04:14:31;57.03;;;30.15;;
16401;SDS011;8310;44.626;11.176;2022-12-20T04:16:59;57.50;;;28.70;;
16401;SDS011;8310;44.626;11.176;2022-12-20T04:19:26;58.85;;;28.67;;
16401;SDS011;8310;44.626;11.176;2022-12-20T04:21:54;54.90;;;27.85;;
16401;SDS011;8310;44.626;11.176;2022-12-20T04:24:22;57.40;;;27.92;;
16401;SDS011;8310;44.626;11.176;2022-12-20T04:26:51;58.28;;;29.85;;
16401;SDS011;8310;44.626;11.176;2022-12-20T04:29:19;55.28;;;27.80;;
16401;SDS011;8310;44.626;11.176;2022-12-20T04:31:47;54.47;;;28.27;;
16401;SDS011;8310;44.626;11.176;2022-12-20T04:34:15;60.13;;;30.98;;
16401;SDS011;8310;44.626;11.176;2022-12-20T04:36:42;62.35;;;28.30;;
16401;SDS011;8310;44.626;11.176;2022-12-20T04:39:10;58.88;;;29.40;;
16401;SDS011;8310;44.626;11.176;2022-12-20T04:41:39;57.17;;;29.55;;
16401;SDS011;8310;44.626;11.176;2022-12-20T04:44:08;61.30;;;31.08;;
16401;SDS011;8310;44.626;11.176;2022-12-20T04:46:36;59.15;;;29.13;;
16401;SDS011;8310;44.626;11.176;2022-12-20T04:49:04;57.45;;;28.67;;
16401;SDS011;8310;44.626;11.176;2022-12-20T04:51:32;52.35;;;27.13;;
16401;SDS011;8310;44.626;11.176;2022-12-20T04:54:00;60.97;;;28.60;;
16401;SDS011;8310;44.626;11.176;2022-12-20T04:56:26;57.55;;;28.80;;
16401;SDS011;8310;44.626;11.176;2022-12-20T04:58:56;61.08;;;29.88;;
16401;SDS011;8310;44.626;11.176;2022-12-20T05:01:26;59.80;;;28.85;;
16401;SDS011;8310;44.626;11.176;2022-12-20T05:03:53;55.63;;;28.00;;
16401;SDS011;8310;44.626;11.176;2022-12-20T05:06:21;55.45;;;27.83;;
16401;SDS011;8310;44.626;11.176;2022-12-20T05:08:49;58.13;;;28.42;;
16401;SDS011;8310;44.626;11.176;2022-12-20T05:11:17;62.67;;;28.58;;
16401;SDS011;8310;44.626;11.176;2022-12-20T05:13:45;53.95;;;27.98;;
16401;SDS011;8310;44.626;11.176;2022-12-20T05:16:12;58.90;;;29.00;;
16401;SDS011;8310;44.626;11.176;2022-12-20T05:18:41;63.63;;;31.13;;
16401;SDS011;8310;44.626;11.176;2022-12-20T05:21:09;55.28;;;28.38;;
16401;SDS011;8310;44.626;11.176;2022-12-20T05:23:54;59.95;;;30.80;;
16401;SDS011;8310;44.626;11.176;2022-12-20T05:26:39;60.10;;;28.50;;
16401;SDS011;8310;44.626;11.176;2022-12-20T05:29:06;56.35;;;28.13;;
16401;SDS011;8310;44.626;11.176;2022-12-20T05:31:33;60.15;;;32.35;;
16401;SDS011;8310;44.626;11.176;2022-12-20T05:34:03;66.88;;;32.90;;
16401;SDS011;8310;44.626;11.176;2022-12-20T05:36:31;63.10;;;30.77;;
16401;SDS011;8310;44.626;11.176;2022-12-20T05:38:59;61.85;;;32.13;;
16401;SDS011;8310;44.626;11.176;2022-12-20T05:41:26;69.20;;;32.97;;
16401;SDS011;8310;44.626;11.176;2022-12-20T05:43:54;58.20;;;31.17;;
16401;SDS011;8310;44.626;11.176;2022-12-20T05:46:22;64.13;;;32.20;;
16401;SDS011;8310;44.626;11.176;2022-12-20T05:48:49;60.78;;;31.35;;
16401;SDS011;8310;44.626;11.176;2022-12-20T05:51:19;61.05;;;32.35;;
16401;SDS011;8310;44.626;11.176;2022-12-20T05:53:47;63.03;;;31.10;;
16401;SDS011;8310;44.626;11.176;2022-12-20T05:56:14;63.85;;;32.90;;
16401;SDS011;8310;44.626;11.176;2022-12-20T05:58:42;62.30;;;31.77;;
16401;SDS011;8310;44.626;11.176;2022-12-20T06:01:10;55.58;;;29.52;;
16401;SDS011;8310;44.626;11.176;2022-12-20T06:03:38;55.53;;;29.63;;
16401;SDS011;8310;44.626;11.176;2022-12-20T06:06:06;65.78;;;31.23;;
16401;SDS011;8310;44.626;11.176;2022-12-20T06:08:36;58.30;;;30.38;;
16401;SDS011;8310;44.626;11.176;2022-12-20T06:11:04;58.05;;;30.98;;
16401;SDS011;8310;44.626;11.176;2022-12-20T06:13:31;58.70;;;31.08;;
16401;SDS011;8310;44.626;11.176;2022-12-20T06:15:59;65.97;;;33.60;;
16401;SDS011;8310;44.626;11.176;2022-12-20T06:18:26;57.38;;;30.70;;
16401;SDS011;8310;44.626;11.176;2022-12-20T06:20:54;57.83;;;29.13;;
16401;SDS011;8310;44.626;11.176;2022-12-20T06:23:22;66.10;;;30.73;;
16401;SDS011;8310;44.626;11.176;2022-12-20T06:25:52;58.97;;;30.63;;
16401;SDS011;8310;44.626;11.176;2022-12-20T06:28:20;57.60;;;29.13;;
16401;SDS011;8310;44.626;11.176;2022-12-20T06:30:51;63.50;;;29.55;;
16401;SDS011;8310;44.626;11.176;2022-12-20T06:33:19;64.72;;;31.08;;
16401;SDS011;8310;44.626;11.176;2022-12-20T06:35:48;59.10;;;29.98;;
16401;SDS011;8310;44.626;11.176;2022-12-20T06:38:16;61.47;;;31.90;;
16401;SDS011;8310;44.626;11.176;2022-12-20T06:40:44;57.58;;;30.63;;
16401;SDS011;8310;44.626;11.176;2022-12-20T06:43:13;58.40;;;30.30;;
16401;SDS011;8310;44.626;11.176;2022-12-20T06:45:41;61.63;;;30.70;;
16401;SDS011;8310;44.626;11.176;2022-12-20T06:48:09;62.92;;;30.38;;
16401;SDS011;8310;44.626;11.176;2022-12-20T06:50:36;61.05;;;29.88;;
16401;SDS011;8310;44.626;11.176;2022-12-20T06:53:04;56.47;;;29.35;;
16401;SDS011;8310;44.626;11.176;2022-12-20T06:55:31;63.80;;;30.15;;
16401;SDS011;8310;44.626;11.176;2022-12-20T06:58:00;57.55;;;30.13;;
16401;SDS011;8310;44.626;11.176;2022-12-20T07:00:29;61.78;;;32.25;;
16401;SDS011;8310;44.626;11.176;2022-12-20T07:02:57;62.85;;;31.17;;
16401;SDS011;8310;44.626;11.176;2022-12-20T07:05:24;60.97;;;30.13;;
16401;SDS011;8310;44.626;11.176;2022-12-20T07:07:52;60.88;;;30.60;;
16401;SDS011;8310;44.626;11.176;2022-12-20T07:10:20;70.30;;;30.27;;
16401;SDS011;8310;44.626;11.176;2022-12-20T07:12:48;59.58;;;30.58;;
16401;SDS011;8310;44.626;11.176;2022-12-20T07:15:17;61.75;;;28.77;;
16401;SDS011;8310;44.626;11.176;2022-12-20T07:17:47;64.57;;;32.88;;
16401;SDS011;8310;44.626;11.176;2022-12-20T07:20:15;62.78;;;30.92;;
16401;SDS011;8310;44.626;11.176;2022-12-20T07:22:46;60.33;;;31.70;;
16401;SDS011;8310;44.626;11.176;2022-12-20T07:25:13;58.35;;;31.23;;
16401;SDS011;8310;44.626;11.176;2022-12-20T07:27:41;67.65;;;32.08;;
16401;SDS011;8310;44.626;11.176;2022-12-20T07:30:09;61.33;;;30.98;;
16401;SDS011;8310;44.626;11.176;2022-12-20T07:32:36;65.97;;;31.60;;
16401;SDS011;8310;44.626;11.176;2022-12-20T07:35:06;65.55;;;30.88;;
16401;SDS011;8310;44.626;11.176;2022-12-20T07:37:35;65.82;;;32.15;;
16401;SDS011;8310;44.626;11.176;2022-12-20T07:40:04;63.72;;;31.27;;
16401;SDS011;8310;44.626;11.176;2022-12-20T07:42:33;66.95;;;32.00;;
16401;SDS011;8310;44.626;11.176;2022-12-20T07:45:01;69.28;;;33.05;;
16401;SDS011;8310;44.626;11.176;2022-12-20T07:47:30;68.60;;;32.28;;
16401;SDS011;8310;44.626;11.176;2022-12-20T07:49:59;67.85;;;33.67;;
16401;SDS011;8310;44.626;11.176;2022-12-20T07:52:28;66.03;;;32.00;;
16401;SDS011;8310;44.626;11.176;2022-12-20T07:55:00;67.20;;;34.03;;
16401;SDS011;8310;44.626;11.176;2022-12-20T07:57:32;65.55;;;31.90;;
16401;SDS011;8310;44.626;11.176;2022-12-20T08:00:03;72.25;;;34.40;;
16401;SDS011;8310;44.626;11.176;2022-12-20T08:02:33;71.45;;;34.53;;
16401;SDS011;8310;44.626;11.176;2022-12-20T08:05:06;66.07;;;31.52;;
16401;SDS011;8310;44.626;11.176;2022-12-20T08:07:37;66.30;;;31.58;;
16401;SDS011;8310;44.626;11.176;2022-12-20T08:10:07;64.65;;;32.33;;
16401;SDS011;8310;44.626;11.176;2022-12-20T08:12:37;65.28;;;30.88;;
16401;SDS011;8310;44.626;11.176;2022-12-20T08:15:06;71.80;;;34.67;;
16401;SDS011;8310;44.626;11.176;2022-12-20T08:17:35;65.60;;;33.30;;
16401;SDS011;8310;44.626;11.176;2022-12-20T08:20:03;66.82;;;33.42;;
16401;SDS011;8310;44.626;11.176;2022-12-20T08:22:32;68.55;;;32.97;;
16401;SDS011;8310;44.626;11.176;2022-12-20T08:25:02;68.78;;;36.03;;
16401;SDS011;8310;44.626;11.176;2022-12-20T08:27:30;65.13;;;31.48;;
16401;SDS011;8310;44.626;11.176;2022-12-20T08:29:57;73.05;;;34.20;;
16401;SDS011;8310;44.626;11.176;2022-12-20T08:32:25;72.25;;;34.67;;
16401;SDS011;8310;44.626;11.176;2022-12-20T08:34:53;69.03;;;34.97;;
16401;SDS011;8310;44.626;11.176;2022-12-20T08:37:20;68.68;;;34.13;;
16401;SDS011;8310;44.626;11.176;2022-12-20T08:39:48;67.45;;;33.17;;
16401;SDS011;8310;44.626;11.176;2022-12-20T08:42:17;69.13;;;34.20;;
16401;SDS011;8310;44.626;11.176;2022-12-20T08:44:45;68.15;;;34.05;;
16401;SDS011;8310;44.626;11.176;2022-12-20T08:47:17;67.00;;;33.92;;
16401;SDS011;8310;44.626;11.176;2022-12-20T08:49:45;69.50;;;33.45;;
16401;SDS011;8310;44.626;11.176;2022-12-20T08:52:13;67.10;;;34.38;;
16401;SDS011;8310;44.626;11.176;2022-12-20T08:54:41;71.88;;;34.63;;
16401;SDS011;8310;44.626;11.176;2022-12-20T08:57:09;62.67;;;35.15;;
16401;SDS011;8310;44.626;11.176;2022-12-20T08:59:38;71.18;;;35.78;;
16401;SDS011;8310;44.626;11.176;2022-12-20T09:02:06;79.68;;;38.08;;
16401;SDS011;8310;44.626;11.176;2022-12-20T09:04:33;75.63;;;37.47;;
16401;SDS011;8310;44.626;11.176;2022-12-20T09:07:00;77.18;;;38.20;;
16401;SDS011;8310;44.626;11.176;2022-12-20T09:09:28;74.30;;;37.97;;
16401;SDS011;8310;44.626;11.176;2022-12-20T09:11:55;77.82;;;39.08;;
16401;SDS011;8310;44.626;11.176;2022-12-20T09:14:23;72.95;;;39.00;;
16401;SDS011;8310;44.626;11.176;2022-12-20T09:16:52;78.78;;;39.10;;
16401;SDS011;8310;44.626;11.176;2022-12-20T09:19:20;72.07;;;38.55;;
16401;SDS011;8310;44.626;11.176;2022-12-20T09:21:47;84.45;;;39.70;;
16401;SDS011;8310;44.626;11.176;2022-12-20T09:24:15;79.13;;;38.90;;
16401;SDS011;8310;44.626;11.176;2022-12-20T09:26:42;77.57;;;39.63;;
16401;SDS011;8310;44.626;11.176;2022-12-20T09:29:10;78.63;;;40.42;;
16401;SDS011;8310;44.626;11.176;2022-12-20T09:31:38;78.72;;;39.92;;
16401;SDS011;8310;44.626;11.176;2022-12-20T09:34:11;73.63;;;40.45;;
16401;SDS011;8310;44.626;11.176;2022-12-20T09:36:38;76.75;;;43.25;;
16401;SDS011;8310;44.626;11.176;2022-12-20T09:39:07;86.50;;;44.40;;
16401;SDS011;8310;44.626;11.176;2022-12-20T09:41:36;79.68;;;43.53;;
16401;SDS011;8310;44.626;11.176;2022-12-20T09:44:06;76.35;;;41.50;;
16401;SDS011;8310;44.626;11.176;2022-12-20T09:46:39;77.55;;;40.88;;
16401;SDS011;8310;44.626;11.176;2022-12-20T09:49:10;87.20;;;43.72;;
16401;SDS011;8310;44.626;11.176;2022-12-20T09:51:48;80.07;;;42.42;;
16401;SDS011;8310;44.626;11.176;2022-12-20T09:54:28;74.22;;;41.90;;
16401;SDS011;8310;44.626;11.176;2022-12-20T09:57:06;82.35;;;41.17;;
16401;SDS011;8310;44.626;11.176;2022-12-20T09:59:43;82.40;;;40.75;;
16401;SDS011;8310;44.626;11.176;2022-12-20T10:02:19;74.60;;;41.00;;
16401;SDS011;8310;44.626;11.176;2022-12-20T10:04:49;81.05;;;41.13;;
16401;SDS011;8310;44.626;11.176;2022-12-20T10:07:21;74.88;;;40.72;;
16401;SDS011;8310;44.626;11.176;2022-12-20T10:10:13;80.63;;;39.95;;
16401;SDS011;8310;44.626;11.176;2022-12-20T10:12:54;76.45;;;41.28;;
16401;SDS011;8310;44.626;11.176;2022-12-20T10:15:32;75.38;;;40.38;;
16401;SDS011;8310;44.626;11.176;2022-12-20T10:20:59;77.03;;;45.40;;
16401;SDS011;8310;44.626;11.176;2022-12-20T10:23:35;79.18;;;43.38;;
16401;SDS011;8310;44.626;11.176;2022-12-20T10:26:10;76.60;;;40.72;;
16401;SDS011;8310;44.626;11.176;2022-12-20T10:28:39;79.00;;;43.15;;
16401;SDS011;8310;44.626;11.176;2022-12-20T10:31:10;78.85;;;43.15;;
16401;SDS011;8310;44.626;11.176;2022-12-20T10:33:40;87.15;;;43.30;;
16401;SDS011;8310;44.626;11.176;2022-12-20T10:36:20;82.40;;;42.92;;
16401;SDS011;8310;44.626;11.176;2022-12-20T10:38:51;83.85;;;44.05;;
16401;SDS011;8310;44.626;11.176;2022-12-20T10:41:20;80.32;;;44.80;;
16401;SDS011;8310;44.626;11.176;2022-12-20T10:43:51;83.68;;;46.92;;
16401;SDS011;8310;44.626;11.176;2022-12-20T10:46:22;88.32;;;48.53;;
16401;SDS011;8310;44.626;11.176;2022-12-20T10:49:03;85.93;;;46.17;;
16401;SDS011;8310;44.626;11.176;2022-12-20T10:51:51;80.03;;;44.90;;
16401;SDS011;8310;44.626;11.176;2022-12-20T10:54:21;80.25;;;42.25;;
16401;SDS011;8310;44.626;11.176;2022-12-20T10:56:53;83.22;;;43.92;;
16401;SDS011;8310;44.626;11.176;2022-12-20T10:59:31;78.63;;;42.42;;
16401;SDS011;8310;44.626;11.176;2022-12-20T11:02:01;82.32;;;44.97;;
16401;SDS011;8310;44.626;11.176;2022-12-20T11:04:56;92.32;;;47.08;;
16401;SDS011;8310;44.626;11.176;2022-12-20T11:07:27;83.60;;;45.50;;
16401;SDS011;8310;44.626;11.176;2022-12-20T11:09:57;84.90;;;44.40;;
16401;SDS011;8310;44.626;11.176;2022-12-20T11:12:26;84.20;;;45.75;;
16401;SDS011;8310;44.626;11.176;2022-12-20T11:15:06;83.07;;;43.10;;
16401;SDS011;8310;44.626;11.176;2022-12-20T11:17:35;80.97;;;42.17;;
16401;SDS011;8310;44.626;11.176;2022-12-20T11:20:10;89.82;;;46.95;;
16401;SDS011;8310;44.626;11.176;2022-12-20T11:22:54;84.25;;;43.90;;
16401;SDS011;8310;44.626;11.176;2022-12-20T11:25:35;89.80;;;46.30;;
16401;SDS011;8310;44.626;11.176;2022-12-20T11:28:16;91.43;;;46.85;;
16401;SDS011;8310;44.626;11.176;2022-12-20T11:30:59;83.43;;;46.20;;
16401;SDS011;8310;44.626;11.176;2022-12-20T11:33:40;80.22;;;42.35;;
16401;SDS011;8310;44.626;11.176;2022-12-20T11:36:21;84.60;;;46.67;;
16401;SDS011;8310;44.626;11.176;2022-12-20T11:38:57;90.63;;;44.92;;
16401;SDS011;8310;44.626;11.176;2022-12-20T11:41:37;81.32;;;43.38;;
16401;SDS011;8310;44.626;11.176;2022-12-20T11:44:16;86.55;;;43.80;;
16401;SDS011;8310;44.626;11.176;2022-12-20T11:46:55;89.40;;;45.00;;
16401;SDS011;8310;44.626;11.176;2022-12-20T11:49:43;86.22;;;43.25;;
16401;SDS011;8310;44.626;11.176;2022-12-20T11:52:40;89.55;;;45.90;;
16401;SDS011;8310;44.626;11.176;2022-12-20T11:55:17;86.28;;;45.80;;
16401;SDS011;8310;44.626;11.176;2022-12-20T11:57:51;94.63;;;44.47;;
16401;SDS011;8310;44.626;11.176;2022-12-20T12:00:23;82.05;;;41.28;;
16401;SDS011;8310;44.626;11.176;2022-12-20T12:02:52;93.53;;;44.25;;
16401;SDS011;8310;44.626;11.176;2022-12-20T12:05:23;89.32;;;44.42;;
16401;SDS011;8310;44.626;11.176;2022-12-20T12:07:56;82.32;;;41.95;;
16401;SDS011;8310;44.626;11.176;2022-12-20T12:10:31;85.93;;;40.97;;
16401;SDS011;8310;44.626;11.176;2022-12-20T12:13:02;89.78;;;42.75;;
16401;SDS011;8310;44.626;11.176;2022-12-20T12:15:38;86.55;;;43.45;;
16401;SDS011;8310;44.626;11.176;2022-12-20T12:18:13;87.57;;;44.13;;
16401;SDS011;8310;44.626;11.176;2022-12-20T12:20:46;85.25;;;43.08;;
16401;SDS011;8310;44.626;11.176;2022-12-20T12:23:20;84.65;;;41.55;;
16401;SDS011;8310;44.626;11.176;2022-12-20T12:25:53;83.10;;;43.15;;
16401;SDS011;8310;44.626;11.176;2022-12-20T12:28:21;90.28;;;44.60;;
16401;SDS011;8310;44.626;11.176;2022-12-20T12:30:52;84.10;;;43.08;;
16401;SDS011;8310;44.626;11.176;2022-12-20T12:33:25;79.75;;;40.58;;
16401;SDS011;8310;44.626;11.176;2022-12-20T12:36:06;90.82;;;42.95;;
16401;SDS011;8310;44.626;11.176;2022-12-20T12:38:55;83.90;;;41.97;;
16401;SDS011;8310;44.626;11.176;2022-12-20T12:44:39;88.50;;;41.92;;
16401;SDS011;8310;44.626;11.176;2022-12-20T12:47:13;74.00;;;40.55;;
16401;SDS011;8310;44.626;11.176;2022-12-20T12:49:47;81.50;;;41.40;;
16401;SDS011;8310;44.626;11.176;2022-12-20T12:52:32;72.80;;;38.80;;
16401;SDS011;8310;44.626;11.176;2022-12-20T13:01:07;73.15;;;40.33;;
16401;SDS011;8310;44.626;11.176;2022-12-20T13:03:38;64.40;;;35.13;;
16401;SDS011;8310;44.626;11.176;2022-12-20T13:06:42;67.82;;;37.70;;
16401;SDS011;8310;44.626;11.176;2022-12-20T13:18:33;68.13;;;38.78;;
16401;SDS011;8310;44.626;11.176;2022-12-20T13:21:23;67.78;;;40.22;;
16401;SDS011;8310;44.626;11.176;2022-12-20T13:27:15;73.40;;;42.78;;
16401;SDS011;8310;44.626;11.176;2022-12-20T13:35:58;77.53;;;41.95;;
16401;SDS011;8310;44.626;11.176;2022-12-20T13:38:50;78.72;;;43.78;;
16401;SDS011;8310;44.626;11.176;2022-12-20T13:41:30;72.47;;;42.08;;
16401;SDS011;8310;44.626;11.176;2022-12-20T13:47:16;79.25;;;44.50;;
16401;SDS011;8310;44.626;11.176;2022-12-20T13:52:53;76.18;;;44.95;;
16401;SDS011;8310;44.626;11.176;2022-12-20T13:55:24;84.82;;;48.80;;
16401;SDS011;8310;44.626;11.176;2022-12-20T13:57:56;72.47;;;43.50;;
16401;SDS011;8310;44.626;11.176;2022-12-20T14:00:29;78.60;;;48.88;;
16401;SDS011;8310;44.626;11.176;2022-12-20T14:02:57;76.88;;;45.55;;
16401;SDS011;8310;44.626;11.176;2022-12-20T14:05:31;79.22;;;46.38;;
16401;SDS011;8310;44.626;11.176;2022-12-20T14:08:03;81.97;;;45.72;;
16401;SDS011;8310;44.626;11.176;2022-12-20T14:10:33;82.97;;;46.13;;
16401;SDS011;8310;44.626;11.176;2022-12-20T14:13:01;80.85;;;46.65;;
16401;SDS011;8310;44.626;11.176;2022-12-20T14:15:29;81.28;;;48.22;;
16401;SDS011;8310;44.626;11.176;2022-12-20T14:18:03;73.45;;;44.53;;
16401;SDS011;8310;44.626;11.176;2022-12-20T14:20:34;81.55;;;45.58;;
16401;SDS011;8310;44.626;11.176;2022-12-20T14:23:04;80.30;;;49.38;;
16401;SDS011;8310;44.626;11.176;2022-12-20T14:25:36;79.95;;;47.67;;
16401;SDS011;8310;44.626;11.176;2022-12-20T14:28:11;77.78;;;45.85;;
16401;SDS011;8310;44.626;11.176;2022-12-20T14:30:43;82.70;;;48.38;;
16401;SDS011;8310;44.626;11.176;2022-12-20T14:36:08;80.47;;;47.00;;
16401;SDS011;8310;44.626;11.176;2022-12-20T14:38:36;77.10;;;46.08;;
16401;SDS011;8310;44.626;11.176;2022-12-20T14:43:56;74.00;;;46.00;;
16401;SDS011;8310;44.626;11.176;2022-12-20T14:46:27;78.10;;;48.72;;
16401;SDS011;8310;44.626;11.176;2022-12-20T14:49:16;79.97;;;48.83;;
16401;SDS011;8310;44.626;11.176;2022-12-20T14:51:49;81.43;;;48.92;;
16401;SDS011;8310;44.626;11.176;2022-12-20T14:54:19;79.85;;;48.03;;
16401;SDS011;8310;44.626;11.176;2022-12-20T14:56:49;75.50;;;46.88;;
16401;SDS011;8310;44.626;11.176;2022-12-20T14:59:21;74.93;;;49.03;;
16401;SDS011;8310;44.626;11.176;2022-12-20T15:01:51;74.15;;;47.65;;
16401;SDS011;8310;44.626;11.176;2022-12-20T15:04:24;77.72;;;48.05;;
16401;SDS011;8310;44.626;11.176;2022-12-20T15:06:58;74.40;;;47.33;;
16401;SDS011;8310;44.626;11.176;2022-12-20T15:09:26;76.63;;;47.53;;
16401;SDS011;8310;44.626;11.176;2022-12-20T15:11:55;75.38;;;46.45;;
16401;SDS011;8310;44.626;11.176;2022-12-20T15:14:26;71.43;;;47.55;;
16401;SDS011;8310;44.626;11.176;2022-12-20T15:16:59;70.78;;;44.70;;
16401;SDS011;8310;44.626;11.176;2022-12-20T15:19:27;70.35;;;44.55;;
16401;SDS011;8310;44.626;11.176;2022-12-20T15:21:55;74.35;;;46.15;;
16401;SDS011;8310;44.626;11.176;2022-12-20T15:24:25;73.57;;;47.97;;
16401;SDS011;8310;44.626;11.176;2022-12-20T15:26:54;69.68;;;45.08;;